Huailai, China
Current Conditions -  °F | °C
As of 5:00 AM on Saturday 25 Oct 2014 (Local Time) from ZBAA Reporting Station
Haze Haze  
Wind Chill: 44°   Ceiling: Unl
Heat Index: 46°   Visibility: 0.87mi
Dew Point: 46°   Wind: 4mph
Humidity: 100%   Direction: 340°NNW
Pressure: 29.85"   Gusts: NA
Location:  40.4°N, 115.5°E
Report Text: ZBAA 242100Z 34002MPS 1400 R01/1300U R36R/1600N R36L/1000NBRNSC 08/08 Q1011 NOSIG
Loading
Personal Weather Stations






























Interactive Weather Map
Tropical Storm Tracking
New forecast layout! Learn more

10-Day Weather Forecast

Advertisements
Track Severe Weather on mobile